createdAt,value
2017-09-29T00:02:07.692Z,65.10
2017-09-29T00:04:36.774Z,67.67
2017-09-29T00:07:05.850Z,64.70
2017-09-29T00:09:34.186Z,67.07
2017-09-29T00:12:05.263Z,69.23
2017-09-29T00:14:33.599Z,65.87
2017-09-29T00:17:01.901Z,68.73
2017-09-29T00:19:30.227Z,69.53
2017-09-29T00:21:59.295Z,66.57
2017-09-29T00:24:27.809Z,67.30
2017-09-29T00:26:56.903Z,64.13
2017-09-29T00:29:25.995Z,68.50
2017-09-29T00:31:55.090Z,68.83
2017-09-29T00:34:23.416Z,65.37
2017-09-29T00:36:51.753Z,65.20
2017-09-29T00:39:20.823Z,68.23
2017-09-29T00:41:49.331Z,65.87
2017-09-29T00:44:17.851Z,66.43
2017-09-29T00:46:46.144Z,66.27
2017-09-29T00:49:14.472Z,64.73
2017-09-29T00:51:42.781Z,65.37
2017-09-29T00:54:11.123Z,64.70
2017-09-29T00:56:39.429Z,64.73
2017-09-29T00:59:07.778Z,60.17
2017-09-29T01:01:36.096Z,65.07
2017-09-29T01:04:04.615Z,66.00
2017-09-29T01:06:32.929Z,65.57
2017-09-29T01:09:01.267Z,63.40
2017-09-29T01:11:29.630Z,67.93
2017-09-29T01:13:58.735Z,61.87
2017-09-29T01:16:28.035Z,64.03
2017-09-29T01:18:57.113Z,68.50
2017-09-29T01:21:25.415Z,64.67
2017-09-29T01:23:54.520Z,66.70
2017-09-29T01:26:22.842Z,65.30
2017-09-29T01:28:51.186Z,63.70
2017-09-29T01:31:19.538Z,64.37
2017-09-29T01:33:48.638Z,64.20
2017-09-29T01:36:17.718Z,67.37
2017-09-29T01:38:46.208Z,65.93
2017-09-29T01:41:15.288Z,68.60
2017-09-29T01:43:43.603Z,67.77
2017-09-29T01:46:11.943Z,66.37
2017-09-29T01:48:41.093Z,70.67
2017-09-29T01:51:09.438Z,66.30
2017-09-29T01:53:38.506Z,63.00
2017-09-29T01:56:07.614Z,66.97
2017-09-29T01:58:35.951Z,62.10
2017-09-29T02:01:04.320Z,66.83
2017-09-29T02:03:32.646Z,64.83
2017-09-29T02:06:01.956Z,63.17
2017-09-29T02:08:31.054Z,61.00
2017-09-29T02:10:59.374Z,64.00
2017-09-29T02:13:27.692Z,70.13
2017-09-29T02:15:56.775Z,65.03
2017-09-29T02:18:25.095Z,64.90
2017-09-29T02:20:53.394Z,65.07
2017-09-29T02:23:21.726Z,66.73
2017-09-29T02:25:50.813Z,68.57
2017-09-29T02:28:19.904Z,65.97
2017-09-29T02:30:48.208Z,62.97
2017-09-29T02:33:17.080Z,67.70
2017-09-29T02:35:45.406Z,66.53
2017-09-29T02:38:13.724Z,64.03
2017-09-29T02:40:42.083Z,65.10
2017-09-29T02:43:10.398Z,61.57
2017-09-29T02:45:38.727Z,63.60
2017-09-29T02:48:07.039Z,69.63
2017-09-29T02:50:36.296Z,63.77
2017-09-29T02:53:04.598Z,64.13
2017-09-29T02:55:32.914Z,63.57
2017-09-29T02:58:02.466Z,64.50
2017-09-29T03:00:31.767Z,65.53
2017-09-29T03:03:01.728Z,70.67
2017-09-29T03:05:31.558Z,59.23
2017-09-29T03:07:59.935Z,65.53
2017-09-29T03:10:28.240Z,64.30
2017-09-29T03:12:57.380Z,61.13
2017-09-29T03:15:26.452Z,62.97
2017-09-29T03:17:54.951Z,59.03
2017-09-29T03:20:24.030Z,64.00
2017-09-29T03:22:52.334Z,68.70
2017-09-29T03:25:21.460Z,62.53
2017-09-29T03:27:49.764Z,63.73
2017-09-29T03:30:18.075Z,67.43
2017-09-29T03:32:47.138Z,66.07
2017-09-29T03:35:15.463Z,71.87
2017-09-29T03:37:43.766Z,64.40
2017-09-29T03:40:12.103Z,64.63
2017-09-29T03:42:40.447Z,66.70
2017-09-29T03:45:09.117Z,66.47
2017-09-29T03:47:37.411Z,67.27
2017-09-29T03:50:05.974Z,67.37
2017-09-29T03:52:37.396Z,64.33
2017-09-29T03:55:06.109Z,66.80
2017-09-29T03:57:39.514Z,66.63
2017-09-29T04:00:08.823Z,64.43
2017-09-29T04:02:37.179Z,62.20
2017-09-29T04:05:05.484Z,67.47
2017-09-29T04:07:33.822Z,68.17
2017-09-29T04:10:02.124Z,64.27
2017-09-29T04:12:31.601Z,66.07
2017-09-29T04:14:59.907Z,66.07
2017-09-29T04:17:28.220Z,69.37
2017-09-29T04:19:57.309Z,66.77
2017-09-29T04:22:25.634Z,67.17
2017-09-29T04:24:53.978Z,66.80
2017-09-29T04:27:22.290Z,67.80
2017-09-29T04:29:50.627Z,67.27
2017-09-29T04:32:18.943Z,63.90
2017-09-29T04:34:47.287Z,67.30
2017-09-29T04:37:15.590Z,68.83
2017-09-29T04:39:43.926Z,64.10
2017-09-29T04:42:12.236Z,64.20
2017-09-29T04:44:40.571Z,67.53
2017-09-29T04:47:09.675Z,69.17
2017-09-29T04:49:38.734Z,66.43
2017-09-29T04:52:07.075Z,67.23
2017-09-29T04:54:35.379Z,70.90
2017-09-29T04:57:03.883Z,67.80
2017-09-29T04:59:32.183Z,71.43
2017-09-29T05:02:01.247Z,68.40
2017-09-29T05:04:29.580Z,68.30
2017-09-29T05:06:57.887Z,70.50
2017-09-29T05:09:26.217Z,69.20
2017-09-29T05:11:54.580Z,69.90
2017-09-29T05:14:23.663Z,74.50
2017-09-29T05:16:52.730Z,72.27
2017-09-29T05:19:21.267Z,72.23
2017-09-29T05:21:50.357Z,71.20
2017-09-29T05:24:19.130Z,69.50
2017-09-29T05:26:47.487Z,71.40
2017-09-29T05:29:15.794Z,76.97
2017-09-29T05:31:44.127Z,75.53
2017-09-29T05:34:12.439Z,77.13
2017-09-29T05:36:41.568Z,81.07
2017-09-29T05:39:09.871Z,73.87
2017-09-29T05:41:39.030Z,78.40
2017-09-29T05:44:07.342Z,79.40
2017-09-29T05:46:36.058Z,74.47
2017-09-29T05:49:05.135Z,73.77
2017-09-29T05:51:33.446Z,71.30
2017-09-29T05:54:01.799Z,72.40
2017-09-29T05:56:30.135Z,78.27
2017-09-29T05:58:58.580Z,87.10
2017-09-29T06:01:27.634Z,71.23
2017-09-29T06:03:55.981Z,67.50
2017-09-29T06:06:24.296Z,78.83
2017-09-29T06:08:52.810Z,70.00
2017-09-29T06:11:21.119Z,72.77
2017-09-29T06:13:49.885Z,71.67
2017-09-29T06:16:18.592Z,75.47
2017-09-29T06:18:46.946Z,74.27
2017-09-29T06:21:15.303Z,68.40
2017-09-29T06:23:44.371Z,65.50
2017-09-29T06:26:13.479Z,69.90
2017-09-29T06:28:41.817Z,73.10
2017-09-29T06:31:10.455Z,78.77
2017-09-29T06:33:39.518Z,66.83
2017-09-29T06:36:07.831Z,71.83
2017-09-29T06:38:36.927Z,68.07
2017-09-29T06:41:05.256Z,67.13
2017-09-29T06:43:33.570Z,64.03
2017-09-29T06:46:02.651Z,64.40
2017-09-29T06:48:31.748Z,63.53
2017-09-29T06:51:00.148Z,63.60
2017-09-29T06:53:29.259Z,65.40
2017-09-29T06:55:58.313Z,60.10
2017-09-29T06:58:27.814Z,60.00
2017-09-29T07:00:56.176Z,59.93
2017-09-29T07:03:25.283Z,64.07
2017-09-29T07:05:53.614Z,65.93
2017-09-29T07:08:21.915Z,63.70
2017-09-29T07:10:50.347Z,58.60
2017-09-29T07:13:18.659Z,60.00
2017-09-29T07:15:47.203Z,64.10
2017-09-29T07:18:16.318Z,63.93
2017-09-29T07:20:44.751Z,64.67
2017-09-29T07:23:13.052Z,62.73
2017-09-29T07:25:44.081Z,61.97
2017-09-29T07:28:13.814Z,61.03
2017-09-29T07:30:44.735Z,62.23
2017-09-29T07:33:13.931Z,59.50
2017-09-29T07:35:43.002Z,59.07
2017-09-29T07:38:11.342Z,59.20
2017-09-29T07:40:39.659Z,57.83
2017-09-29T07:43:07.992Z,55.77
2017-09-29T07:45:36.288Z,58.17
2017-09-29T07:48:04.631Z,57.97
2017-09-29T07:50:32.945Z,56.63
2017-09-29T07:53:01.468Z,56.90
2017-09-29T07:55:29.799Z,55.50
2017-09-29T07:57:58.107Z,52.80
2017-09-29T08:00:27.215Z,56.50
2017-09-29T08:02:55.520Z,56.20
2017-09-29T08:05:23.872Z,53.80
2017-09-29T08:07:52.929Z,55.07
2017-09-29T08:10:21.238Z,53.50
2017-09-29T08:12:50.323Z,52.27
2017-09-29T08:15:19.640Z,54.63
2017-09-29T08:17:48.020Z,51.17
2017-09-29T08:20:16.338Z,53.77
2017-09-29T08:22:44.776Z,51.97
2017-09-29T08:25:13.837Z,49.83
2017-09-29T08:27:42.169Z,51.33
2017-09-29T08:30:10.488Z,54.27
2017-09-29T08:32:38.902Z,52.47
2017-09-29T08:35:07.223Z,50.80
2017-09-29T08:37:35.531Z,51.10
2017-09-29T08:40:03.839Z,49.47
2017-09-29T08:42:32.169Z,49.10
2017-09-29T08:45:01.251Z,49.93
2017-09-29T08:47:29.570Z,50.20
2017-09-29T08:49:58.688Z,48.37
2017-09-29T08:52:26.992Z,50.43
2017-09-29T08:54:55.318Z,49.07
2017-09-29T08:57:24.397Z,47.70
2017-09-29T08:59:52.854Z,47.97
2017-09-29T09:02:21.168Z,50.23
2017-09-29T09:04:50.233Z,47.17
2017-09-29T09:07:18.585Z,47.73
2017-09-29T09:09:46.891Z,46.47
2017-09-29T09:12:15.214Z,48.50
2017-09-29T09:14:44.276Z,47.73
2017-09-29T09:17:13.384Z,47.83
2017-09-29T09:19:41.704Z,44.17
2017-09-29T09:22:10.032Z,44.70
2017-09-29T09:24:39.111Z,44.13
2017-09-29T09:27:07.464Z,44.80
2017-09-29T09:29:35.765Z,42.70
2017-09-29T09:32:04.126Z,44.50
2017-09-29T09:34:32.450Z,43.43
2017-09-29T09:37:01.745Z,42.83
2017-09-29T09:39:30.072Z,43.33
2017-09-29T09:41:58.407Z,42.20
2017-09-29T09:44:26.770Z,46.33
2017-09-29T09:46:55.846Z,44.00
2017-09-29T09:49:24.158Z,45.40
2017-09-29T09:51:53.216Z,43.10
2017-09-29T09:54:22.455Z,44.33
2017-09-29T09:56:50.743Z,44.70
2017-09-29T09:59:19.310Z,43.17
2017-09-29T10:01:47.635Z,42.57
2017-09-29T10:04:15.929Z,40.73
2017-09-29T10:06:44.263Z,46.77
2017-09-29T10:09:12.594Z,44.20
2017-09-29T10:11:41.706Z,43.10
2017-09-29T10:14:10.025Z,42.73
2017-09-29T10:16:38.373Z,39.37
2017-09-29T10:19:06.682Z,42.83
2017-09-29T10:21:35.015Z,44.37
2017-09-29T10:24:03.362Z,45.07
2017-09-29T10:26:31.657Z,44.67
2017-09-29T10:29:00.745Z,44.40
2017-09-29T10:31:29.829Z,41.30
2017-09-29T10:33:58.155Z,42.33
2017-09-29T10:36:26.467Z,43.07
2017-09-29T10:38:54.806Z,40.90
2017-09-29T10:41:23.122Z,43.10
2017-09-29T10:43:51.456Z,43.57
2017-09-29T10:46:19.774Z,42.63
2017-09-29T10:48:48.506Z,42.20
2017-09-29T10:51:17.576Z,45.27
2017-09-29T10:53:45.879Z,38.80
2017-09-29T10:56:14.213Z,45.97
2017-09-29T10:58:43.302Z,48.03
2017-09-29T11:01:12.431Z,45.97
2017-09-29T11:03:41.499Z,47.03
2017-09-29T11:06:09.831Z,44.60
2017-09-29T11:08:38.140Z,40.53
2017-09-29T11:11:06.523Z,41.97
2017-09-29T11:13:34.831Z,40.60
2017-09-29T11:16:03.177Z,44.53
2017-09-29T11:18:31.490Z,42.90
2017-09-29T11:21:00.015Z,42.97
2017-09-29T11:23:28.316Z,43.23
2017-09-29T11:25:56.636Z,45.03
2017-09-29T11:28:24.987Z,43.90
2017-09-29T11:30:53.331Z,40.30
2017-09-29T11:33:21.667Z,39.97
2017-09-29T11:35:49.991Z,39.57
2017-09-29T11:38:18.355Z,38.97
2017-09-29T11:40:46.658Z,43.23
2017-09-29T11:43:15.783Z,37.33
2017-09-29T11:45:44.119Z,43.77
2017-09-29T11:48:12.493Z,37.50
2017-09-29T11:50:40.806Z,32.97
2017-09-29T11:53:09.095Z,34.53
2017-09-29T11:55:37.439Z,44.30
2017-09-29T11:58:05.753Z,37.13
2017-09-29T12:00:34.086Z,33.20
2017-09-29T12:03:03.183Z,29.67
2017-09-29T12:05:31.495Z,33.03
2017-09-29T12:07:59.783Z,30.93
2017-09-29T12:10:28.230Z,34.53
2017-09-29T12:12:57.302Z,33.43
2017-09-29T12:15:25.599Z,31.60
2017-09-29T12:17:53.903Z,29.87
2017-09-29T12:20:22.223Z,27.67
2017-09-29T12:22:50.538Z,27.50
2017-09-29T12:25:18.871Z,25.83
2017-09-29T12:27:47.202Z,24.93
2017-09-29T12:30:16.259Z,27.37
2017-09-29T12:32:44.579Z,29.33
2017-09-29T12:35:13.651Z,27.47
2017-09-29T12:37:42.751Z,28.83
2017-09-29T12:40:11.082Z,31.50
2017-09-29T12:42:39.617Z,31.57
2017-09-29T12:45:07.929Z,29.13
2017-09-29T12:47:36.244Z,30.40
2017-09-29T12:50:04.575Z,31.20
2017-09-29T12:52:32.918Z,29.87
2017-09-29T12:55:01.273Z,28.77
2017-09-29T12:57:29.631Z,27.77
2017-09-29T12:59:58.022Z,29.90
2017-09-29T13:02:26.412Z,29.70
2017-09-29T13:04:55.851Z,29.10
2017-09-29T13:07:24.202Z,29.37
2017-09-29T13:09:52.511Z,29.30
2017-09-29T13:12:20.838Z,28.73
2017-09-29T13:14:49.127Z,31.37
2017-09-29T13:17:18.265Z,30.63
2017-09-29T13:19:47.319Z,29.50
2017-09-29T13:22:15.641Z,28.97
2017-09-29T13:24:43.951Z,27.27
2017-09-29T13:27:12.269Z,29.73
2017-09-29T13:29:41.438Z,26.80
2017-09-29T13:32:09.877Z,28.40
2017-09-29T13:34:38.192Z,27.43
2017-09-29T13:37:06.469Z,28.93
2017-09-29T13:39:35.568Z,32.17
2017-09-29T13:42:03.867Z,28.97
2017-09-29T13:44:32.233Z,26.37
2017-09-29T13:47:01.339Z,27.90
2017-09-29T13:49:29.680Z,24.97
2017-09-29T13:51:58.733Z,26.50
2017-09-29T13:54:27.071Z,26.43
2017-09-29T13:56:55.363Z,25.87
2017-09-29T13:59:24.654Z,24.20
2017-09-29T14:01:53.730Z,25.40
2017-09-29T14:04:22.054Z,22.00
2017-09-29T14:06:50.363Z,29.10
2017-09-29T14:09:18.671Z,25.40
2017-09-29T14:11:47.776Z,25.57
2017-09-29T14:14:16.845Z,31.33
2017-09-29T14:16:45.972Z,23.70
2017-09-29T14:19:14.306Z,23.67
2017-09-29T14:21:42.750Z,26.37
2017-09-29T14:24:11.041Z,24.93
2017-09-29T14:26:39.374Z,25.97
2017-09-29T14:29:07.764Z,24.20
2017-09-29T14:31:36.102Z,23.07
2017-09-29T14:34:05.235Z,25.47
2017-09-29T14:36:33.539Z,25.03
2017-09-29T14:39:01.888Z,23.90
2017-09-29T14:41:30.215Z,23.33
2017-09-29T14:43:58.588Z,22.90
2017-09-29T14:46:26.898Z,27.87
2017-09-29T14:48:56.107Z,21.73
2017-09-29T14:51:25.187Z,15.53
2017-09-29T14:53:53.491Z,16.57
2017-09-29T14:56:21.814Z,14.73
2017-09-29T14:58:50.127Z,20.70
2017-09-29T15:01:19.110Z,16.00
2017-09-29T15:03:48.347Z,17.57
2017-09-29T15:06:16.959Z,16.53
2017-09-29T15:08:45.278Z,17.03
2017-09-29T15:11:13.590Z,16.27
2017-09-29T15:13:41.919Z,16.00
2017-09-29T15:16:10.238Z,15.37
2017-09-29T15:18:38.574Z,15.60
2017-09-29T15:21:06.915Z,12.83
2017-09-29T15:23:35.243Z,14.23
2017-09-29T15:26:03.582Z,14.23
2017-09-29T15:28:32.750Z,13.77
2017-09-29T15:31:01.163Z,15.67
2017-09-29T15:33:29.495Z,14.10
2017-09-29T15:35:57.809Z,13.13
2017-09-29T15:38:26.288Z,14.30
2017-09-29T15:40:54.643Z,12.03
2017-09-29T15:43:22.988Z,12.57
2017-09-29T15:45:51.337Z,12.43
2017-09-29T15:48:20.454Z,14.00
2017-09-29T15:50:48.812Z,12.40
2017-09-29T15:53:17.119Z,14.37
2017-09-29T15:55:45.457Z,14.10
2017-09-29T15:58:13.765Z,12.43
2017-09-29T16:00:42.867Z,14.30
2017-09-29T16:03:11.190Z,13.73
2017-09-29T16:05:39.521Z,13.17
2017-09-29T16:08:08.580Z,14.43
2017-09-29T16:10:37.048Z,17.30
2017-09-29T16:13:05.361Z,13.97
2017-09-29T16:15:33.688Z,15.10
2017-09-29T16:18:02.063Z,13.77
2017-09-29T16:20:30.369Z,13.77
2017-09-29T16:22:58.691Z,13.40
2017-09-29T16:25:27.018Z,12.97
2017-09-29T16:27:55.330Z,13.23
2017-09-29T16:30:24.430Z,14.73
2017-09-29T16:32:52.736Z,14.87
2017-09-29T16:35:21.050Z,14.20
2017-09-29T16:37:49.362Z,15.07
2017-09-29T16:40:17.711Z,15.97
2017-09-29T16:42:46.802Z,13.90
2017-09-29T16:45:15.513Z,14.57
2017-09-29T16:47:44.591Z,14.13
2017-09-29T16:50:12.887Z,14.50
2017-09-29T16:52:41.983Z,14.70
2017-09-29T16:55:10.314Z,14.77
2017-09-29T16:57:39.394Z,13.97
2017-09-29T17:00:07.738Z,13.90
2017-09-29T17:02:36.322Z,16.23
2017-09-29T17:05:04.646Z,16.50
2017-09-29T17:07:33.010Z,17.63
2017-09-29T17:10:01.319Z,20.47
2017-09-29T17:12:29.750Z,19.27
2017-09-29T17:14:58.061Z,20.50
2017-09-29T17:17:27.170Z,19.13
2017-09-29T17:19:56.285Z,19.70
2017-09-29T17:22:25.366Z,18.90
2017-09-29T17:24:54.458Z,17.97
2017-09-29T17:27:22.745Z,19.87
2017-09-29T17:29:51.852Z,19.53
2017-09-29T17:32:20.439Z,18.13
2017-09-29T17:34:48.760Z,19.73
2017-09-29T17:37:17.068Z,19.93
2017-09-29T17:39:46.372Z,20.53
2017-09-29T17:42:14.690Z,19.87
2017-09-29T17:44:42.987Z,19.70
2017-09-29T17:47:11.334Z,18.63
2017-09-29T17:49:39.651Z,20.17
2017-09-29T17:52:07.985Z,19.20
2017-09-29T17:54:36.318Z,19.50
2017-09-29T17:57:04.671Z,17.93
2017-09-29T17:59:33.011Z,22.30
2017-09-29T18:02:02.083Z,19.70
2017-09-29T18:04:31.154Z,18.20
2017-09-29T18:06:59.507Z,18.70
2017-09-29T18:09:27.863Z,20.17
2017-09-29T18:11:56.193Z,20.53
2017-09-29T18:14:24.552Z,19.77
2017-09-29T18:16:52.851Z,19.73
2017-09-29T18:19:21.464Z,20.70
2017-09-29T18:21:50.557Z,21.43
2017-09-29T18:24:19.454Z,19.03
2017-09-29T18:26:47.804Z,20.43
2017-09-29T18:29:16.884Z,22.20
2017-09-29T18:31:45.228Z,21.43
2017-09-29T18:34:14.395Z,20.07
2017-09-29T18:36:42.763Z,18.40
2017-09-29T18:39:12.630Z,21.03
2017-09-29T18:41:42.568Z,22.57
2017-09-29T18:44:15.583Z,22.77
2017-09-29T19:00:04.251Z,22.57
2017-09-29T19:02:32.557Z,24.57
2017-09-29T19:05:00.911Z,26.40
2017-09-29T19:07:29.252Z,30.63
2017-09-29T19:09:57.614Z,29.93
2017-09-29T19:12:25.916Z,29.40
2017-09-29T19:14:54.268Z,31.70
2017-09-29T19:17:22.612Z,31.47
2017-09-29T19:19:51.075Z,32.87
2017-09-29T19:22:19.398Z,35.10
2017-09-29T19:24:47.802Z,36.60
2017-09-29T19:27:17.123Z,34.13
2017-09-29T19:29:45.454Z,35.23
2017-09-29T19:32:13.842Z,36.60
2017-09-29T19:34:42.181Z,39.83
2017-09-29T19:37:10.516Z,40.70
2017-09-29T19:39:38.830Z,39.33
2017-09-29T19:42:07.282Z,38.60
2017-09-29T19:44:35.611Z,41.80
2017-09-29T19:47:04.719Z,41.53
2017-09-29T19:49:33.811Z,41.67
2017-09-29T19:52:02.116Z,42.67
2017-09-29T19:54:30.525Z,44.33
2017-09-29T19:56:58.880Z,42.67
2017-09-29T19:59:27.206Z,43.13
2017-09-29T20:01:55.505Z,40.50
2017-09-29T20:04:23.828Z,43.97
2017-09-29T20:06:52.171Z,42.73
2017-09-29T20:09:21.372Z,39.87
2017-09-29T20:11:50.432Z,41.83
2017-09-29T20:14:19.525Z,41.97
2017-09-29T20:16:47.868Z,42.27
2017-09-29T20:19:16.187Z,43.73
2017-09-29T20:21:44.599Z,45.00
2017-09-29T20:24:12.892Z,44.83
2017-09-29T20:26:41.226Z,42.90
2017-09-29T20:29:10.310Z,46.37
2017-09-29T20:31:38.635Z,46.67
2017-09-29T20:34:06.941Z,46.73
2017-09-29T20:36:35.242Z,47.37
2017-09-29T20:39:03.594Z,45.07
2017-09-29T20:41:31.939Z,46.43
2017-09-29T20:44:00.272Z,48.17
2017-09-29T20:46:29.712Z,48.90
2017-09-29T20:48:58.138Z,48.20
2017-09-29T20:51:26.458Z,51.43
2017-09-29T20:53:55.526Z,53.17
2017-09-29T20:56:23.861Z,48.03
2017-09-29T20:58:52.180Z,46.80
2017-09-29T21:01:20.511Z,49.00
2017-09-29T21:03:48.855Z,47.33
2017-09-29T21:06:17.194Z,46.33
2017-09-29T21:08:45.500Z,44.77
2017-09-29T21:11:13.992Z,46.20
2017-09-29T21:13:42.307Z,47.57
2017-09-29T21:16:10.659Z,44.87
2017-09-29T21:18:39.738Z,46.27
2017-09-29T21:21:08.061Z,42.73
2017-09-29T21:23:36.494Z,47.40
2017-09-29T21:26:04.806Z,48.33
2017-09-29T21:28:33.251Z,45.17
2017-09-29T21:31:01.579Z,48.23
2017-09-29T21:33:29.875Z,44.70
2017-09-29T21:35:59.694Z,44.57
2017-09-29T21:38:27.999Z,46.50
2017-09-29T21:40:57.096Z,43.57
2017-09-29T21:43:25.399Z,45.00
2017-09-29T21:45:53.757Z,39.77
2017-09-29T21:48:22.095Z,43.70
2017-09-29T21:50:50.638Z,40.43
2017-09-29T21:53:19.733Z,44.23
2017-09-29T21:55:48.110Z,46.13
2017-09-29T21:58:17.222Z,45.57
2017-09-29T22:00:45.528Z,47.43
2017-09-29T22:03:14.630Z,50.43
2017-09-29T22:05:42.996Z,47.57
2017-09-29T22:08:12.231Z,49.93
2017-09-29T22:10:40.526Z,48.73
2017-09-29T22:13:08.814Z,52.47
2017-09-29T22:15:37.138Z,49.10
2017-09-29T22:18:05.456Z,50.57
2017-09-29T22:20:34.599Z,52.10
2017-09-29T22:23:03.674Z,52.40
2017-09-29T22:25:32.795Z,50.20
2017-09-29T22:28:01.902Z,48.33
2017-09-29T22:30:30.490Z,49.17
2017-09-29T22:32:59.558Z,46.27
2017-09-29T22:35:28.642Z,51.53
2017-09-29T22:37:56.958Z,47.80
2017-09-29T22:40:25.331Z,49.47
2017-09-29T22:42:53.690Z,48.03
2017-09-29T22:45:22.764Z,48.13
2017-09-29T22:47:51.082Z,48.63
2017-09-29T22:50:19.384Z,50.50
2017-09-29T22:52:47.717Z,47.70
2017-09-29T22:55:16.800Z,49.80
2017-09-29T22:57:45.897Z,47.00
2017-09-29T23:00:15.019Z,50.00
2017-09-29T23:02:43.343Z,52.00
2017-09-29T23:05:11.674Z,50.53
2017-09-29T23:07:39.987Z,51.10
2017-09-29T23:10:08.335Z,51.20
2017-09-29T23:12:36.674Z,52.23
2017-09-29T23:15:05.187Z,51.57
2017-09-29T23:17:33.523Z,48.43
2017-09-29T23:20:01.816Z,46.97
2017-09-29T23:22:30.910Z,47.77
2017-09-29T23:24:59.988Z,49.37
2017-09-29T23:27:28.298Z,47.57
2017-09-29T23:29:57.364Z,47.47
2017-09-29T23:32:26.470Z,46.90
2017-09-29T23:34:55.546Z,45.33
2017-09-29T23:37:23.870Z,47.37
2017-09-29T23:39:52.177Z,46.40
2017-09-29T23:42:20.599Z,46.43
2017-09-29T23:44:49.700Z,42.40
2017-09-29T23:47:18.783Z,47.67
2017-09-29T23:49:47.111Z,45.53
2017-09-29T23:52:15.423Z,44.77
2017-09-29T23:54:44.880Z,45.70
2017-09-29T23:57:13.193Z,45.53
2017-09-29T23:59:42.294Z,45.27
